sensor_id;sensor_type;location;lat;lon;timestamp;P1;durP1;ratioP1;P2;durP2;ratioP2
19965;SDS011;10144;50.874;4.762;2023-06-22T00:02:24;8.32;;;4.57;;
19965;SDS011;10144;50.874;4.762;2023-06-22T00:04:50;12.98;;;4.80;;
19965;SDS011;10144;50.874;4.762;2023-06-22T00:07:17;11.63;;;4.72;;
19965;SDS011;10144;50.874;4.762;2023-06-22T00:09:46;9.23;;;5.43;;
19965;SDS011;10144;50.874;4.762;2023-06-22T00:12:11;8.82;;;4.82;;
19965;SDS011;10144;50.874;4.762;2023-06-22T00:14:39;8.30;;;4.80;;
19965;SDS011;10144;50.874;4.762;2023-06-22T00:17:06;7.75;;;4.65;;
19965;SDS011;10144;50.874;4.762;2023-06-22T00:19:33;8.45;;;5.10;;
19965;SDS011;10144;50.874;4.762;2023-06-22T00:22:01;9.52;;;5.22;;
19965;SDS011;10144;50.874;4.762;2023-06-22T00:24:28;9.40;;;4.82;;
19965;SDS011;10144;50.874;4.762;2023-06-22T00:26:54;9.85;;;5.50;;
19965;SDS011;10144;50.874;4.762;2023-06-22T00:29:22;9.63;;;5.32;;
19965;SDS011;10144;50.874;4.762;2023-06-22T00:31:48;11.68;;;5.72;;
19965;SDS011;10144;50.874;4.762;2023-06-22T00:34:13;10.13;;;5.30;;
19965;SDS011;10144;50.874;4.762;2023-06-22T00:36:41;9.82;;;5.03;;
19965;SDS011;10144;50.874;4.762;2023-06-22T00:39:07;7.88;;;5.28;;
19965;SDS011;10144;50.874;4.762;2023-06-22T00:41:35;8.95;;;5.28;;
19965;SDS011;10144;50.874;4.762;2023-06-22T00:44:01;9.32;;;5.50;;
19965;SDS011;10144;50.874;4.762;2023-06-22T00:46:30;10.35;;;5.53;;
19965;SDS011;10144;50.874;4.762;2023-06-22T00:48:56;10.68;;;5.85;;
19965;SDS011;10144;50.874;4.762;2023-06-22T00:51:23;10.23;;;5.35;;
19965;SDS011;10144;50.874;4.762;2023-06-22T00:53:50;12.10;;;5.65;;
19965;SDS011;10144;50.874;4.762;2023-06-22T00:56:18;10.38;;;6.15;;
19965;SDS011;10144;50.874;4.762;2023-06-22T00:58:45;11.00;;;6.22;;
19965;SDS011;10144;50.874;4.762;2023-06-22T01:01:12;12.73;;;6.30;;
19965;SDS011;10144;50.874;4.762;2023-06-22T01:03:40;10.55;;;6.13;;
19965;SDS011;10144;50.874;4.762;2023-06-22T01:06:15;12.43;;;5.90;;
19965;SDS011;10144;50.874;4.762;2023-06-22T01:08:51;9.60;;;5.13;;
19965;SDS011;10144;50.874;4.762;2023-06-22T01:11:32;9.50;;;5.65;;
19965;SDS011;10144;50.874;4.762;2023-06-22T01:14:12;10.15;;;5.80;;
19965;SDS011;10144;50.874;4.762;2023-06-22T01:16:43;9.05;;;5.47;;
19965;SDS011;10144;50.874;4.762;2023-06-22T01:22:03;10.82;;;5.57;;
19965;SDS011;10144;50.874;4.762;2023-06-22T01:27:28;11.27;;;5.53;;
19965;SDS011;10144;50.874;4.762;2023-06-22T01:30:17;12.00;;;6.00;;
19965;SDS011;10144;50.874;4.762;2023-06-22T01:32:44;12.10;;;5.78;;
19965;SDS011;10144;50.874;4.762;2023-06-22T01:35:11;9.75;;;5.82;;
19965;SDS011;10144;50.874;4.762;2023-06-22T01:37:39;8.68;;;5.50;;
19965;SDS011;10144;50.874;4.762;2023-06-22T01:40:05;12.85;;;5.93;;
19965;SDS011;10144;50.874;4.762;2023-06-22T01:42:36;11.30;;;5.70;;
19965;SDS011;10144;50.874;4.762;2023-06-22T01:45:05;10.02;;;5.93;;
19965;SDS011;10144;50.874;4.762;2023-06-22T01:47:32;9.23;;;5.80;;
19965;SDS011;10144;50.874;4.762;2023-06-22T01:49:59;12.05;;;6.20;;
19965;SDS011;10144;50.874;4.762;2023-06-22T01:52:26;10.82;;;6.20;;
19965;SDS011;10144;50.874;4.762;2023-06-22T01:54:52;12.98;;;7.00;;
19965;SDS011;10144;50.874;4.762;2023-06-22T01:57:18;10.23;;;6.18;;
19965;SDS011;10144;50.874;4.762;2023-06-22T02:02:36;12.13;;;6.20;;
19965;SDS011;10144;50.874;4.762;2023-06-22T02:05:06;10.73;;;6.25;;
19965;SDS011;10144;50.874;4.762;2023-06-22T02:07:39;11.98;;;6.40;;
19965;SDS011;10144;50.874;4.762;2023-06-22T02:10:13;13.98;;;6.85;;
19965;SDS011;10144;50.874;4.762;2023-06-22T02:12:44;11.30;;;6.15;;
19965;SDS011;10144;50.874;4.762;2023-06-22T02:15:12;10.45;;;6.10;;
19965;SDS011;10144;50.874;4.762;2023-06-22T02:17:39;13.35;;;6.35;;
19965;SDS011;10144;50.874;4.762;2023-06-22T02:20:13;10.38;;;6.00;;
19965;SDS011;10144;50.874;4.762;2023-06-22T02:22:39;12.75;;;5.88;;
19965;SDS011;10144;50.874;4.762;2023-06-22T02:25:07;10.85;;;6.00;;
19965;SDS011;10144;50.874;4.762;2023-06-22T02:27:34;12.80;;;6.60;;
19965;SDS011;10144;50.874;4.762;2023-06-22T02:30:00;11.80;;;6.15;;
19965;SDS011;10144;50.874;4.762;2023-06-22T02:32:27;11.50;;;6.38;;
19965;SDS011;10144;50.874;4.762;2023-06-22T02:34:53;12.40;;;6.63;;
19965;SDS011;10144;50.874;4.762;2023-06-22T02:37:21;11.00;;;6.20;;
19965;SDS011;10144;50.874;4.762;2023-06-22T02:39:50;10.38;;;6.65;;
19965;SDS011;10144;50.874;4.762;2023-06-22T02:42:15;10.80;;;6.80;;
19965;SDS011;10144;50.874;4.762;2023-06-22T02:44:45;12.32;;;6.47;;
19965;SDS011;10144;50.874;4.762;2023-06-22T02:47:11;14.10;;;6.78;;
19965;SDS011;10144;50.874;4.762;2023-06-22T02:49:36;15.05;;;6.40;;
19965;SDS011;10144;50.874;4.762;2023-06-22T02:52:03;11.55;;;6.75;;
19965;SDS011;10144;50.874;4.762;2023-06-22T02:54:30;11.10;;;6.55;;
19965;SDS011;10144;50.874;4.762;2023-06-22T02:56:59;13.52;;;6.70;;
19965;SDS011;10144;50.874;4.762;2023-06-22T02:59:27;12.18;;;6.53;;
19965;SDS011;10144;50.874;4.762;2023-06-22T03:01:54;12.65;;;7.10;;
19965;SDS011;10144;50.874;4.762;2023-06-22T03:04:20;13.10;;;6.70;;
19965;SDS011;10144;50.874;4.762;2023-06-22T03:06:47;13.25;;;6.50;;
19965;SDS011;10144;50.874;4.762;2023-06-22T03:09:16;14.82;;;7.43;;
19965;SDS011;10144;50.874;4.762;2023-06-22T03:11:43;12.52;;;6.60;;
19965;SDS011;10144;50.874;4.762;2023-06-22T03:14:11;12.90;;;6.88;;
19965;SDS011;10144;50.874;4.762;2023-06-22T03:19:06;13.10;;;7.45;;
19965;SDS011;10144;50.874;4.762;2023-06-22T03:21:31;11.98;;;7.70;;
19965;SDS011;10144;50.874;4.762;2023-06-22T03:23:57;16.27;;;7.70;;
19965;SDS011;10144;50.874;4.762;2023-06-22T03:26:23;17.30;;;8.30;;
19965;SDS011;10144;50.874;4.762;2023-06-22T03:28:53;16.10;;;7.28;;
19965;SDS011;10144;50.874;4.762;2023-06-22T03:31:19;13.75;;;7.63;;
19965;SDS011;10144;50.874;4.762;2023-06-22T03:33:49;12.98;;;7.30;;
19965;SDS011;10144;50.874;4.762;2023-06-22T03:36:16;15.18;;;8.15;;
19965;SDS011;10144;50.874;4.762;2023-06-22T03:38:49;15.55;;;7.72;;
19965;SDS011;10144;50.874;4.762;2023-06-22T03:41:16;15.30;;;8.02;;
19965;SDS011;10144;50.874;4.762;2023-06-22T03:43:42;17.55;;;8.55;;
19965;SDS011;10144;50.874;4.762;2023-06-22T03:46:09;14.18;;;8.10;;
19965;SDS011;10144;50.874;4.762;2023-06-22T03:48:35;13.75;;;7.78;;
19965;SDS011;10144;50.874;4.762;2023-06-22T03:51:02;15.10;;;8.68;;
19965;SDS011;10144;50.874;4.762;2023-06-22T03:53:31;15.73;;;8.48;;
19965;SDS011;10144;50.874;4.762;2023-06-22T03:55:57;15.45;;;8.63;;
19965;SDS011;10144;50.874;4.762;2023-06-22T03:58:22;20.77;;;9.80;;
19965;SDS011;10144;50.874;4.762;2023-06-22T04:00:51;14.77;;;9.73;;
19965;SDS011;10144;50.874;4.762;2023-06-22T04:03:19;17.33;;;9.50;;
19965;SDS011;10144;50.874;4.762;2023-06-22T04:05:45;18.83;;;10.68;;
19965;SDS011;10144;50.874;4.762;2023-06-22T04:08:12;17.63;;;9.75;;
19965;SDS011;10144;50.874;4.762;2023-06-22T04:10:38;21.00;;;10.40;;
19965;SDS011;10144;50.874;4.762;2023-06-22T04:13:04;17.63;;;10.40;;
19965;SDS011;10144;50.874;4.762;2023-06-22T04:15:30;17.85;;;9.98;;
19965;SDS011;10144;50.874;4.762;2023-06-22T04:17:56;22.35;;;11.52;;
19965;SDS011;10144;50.874;4.762;2023-06-22T04:20:22;24.08;;;11.13;;
19965;SDS011;10144;50.874;4.762;2023-06-22T04:22:53;19.42;;;10.68;;
19965;SDS011;10144;50.874;4.762;2023-06-22T04:25:19;18.63;;;10.77;;
19965;SDS011;10144;50.874;4.762;2023-06-22T04:27:46;19.25;;;10.43;;
19965;SDS011;10144;50.874;4.762;2023-06-22T04:30:12;23.08;;;10.77;;
19965;SDS011;10144;50.874;4.762;2023-06-22T04:32:40;21.83;;;10.60;;
19965;SDS011;10144;50.874;4.762;2023-06-22T04:35:06;18.25;;;11.00;;
19965;SDS011;10144;50.874;4.762;2023-06-22T04:37:38;20.30;;;10.25;;
19965;SDS011;10144;50.874;4.762;2023-06-22T04:40:04;19.70;;;10.57;;
19965;SDS011;10144;50.874;4.762;2023-06-22T04:42:33;18.27;;;10.25;;
19965;SDS011;10144;50.874;4.762;2023-06-22T04:45:00;18.63;;;11.25;;
19965;SDS011;10144;50.874;4.762;2023-06-22T04:47:26;20.10;;;10.40;;
19965;SDS011;10144;50.874;4.762;2023-06-22T04:49:51;18.77;;;10.25;;
19965;SDS011;10144;50.874;4.762;2023-06-22T04:52:17;18.25;;;10.18;;
19965;SDS011;10144;50.874;4.762;2023-06-22T04:54:46;22.02;;;11.10;;
19965;SDS011;10144;50.874;4.762;2023-06-22T04:57:20;17.92;;;10.70;;
19965;SDS011;10144;50.874;4.762;2023-06-22T05:02:18;20.60;;;11.95;;
19965;SDS011;10144;50.874;4.762;2023-06-22T05:07:16;21.50;;;11.15;;
19965;SDS011;10144;50.874;4.762;2023-06-22T05:09:41;20.98;;;11.20;;
19965;SDS011;10144;50.874;4.762;2023-06-22T05:12:07;21.25;;;12.10;;
19965;SDS011;10144;50.874;4.762;2023-06-22T05:14:33;24.55;;;12.52;;
19965;SDS011;10144;50.874;4.762;2023-06-22T05:16:58;24.05;;;13.00;;
19965;SDS011;10144;50.874;4.762;2023-06-22T05:19:29;24.75;;;13.13;;
19965;SDS011;10144;50.874;4.762;2023-06-22T05:21:58;24.90;;;12.65;;
19965;SDS011;10144;50.874;4.762;2023-06-22T05:24:25;23.63;;;13.75;;
19965;SDS011;10144;50.874;4.762;2023-06-22T05:26:50;22.50;;;13.20;;
19965;SDS011;10144;50.874;4.762;2023-06-22T05:29:16;22.77;;;12.48;;
19965;SDS011;10144;50.874;4.762;2023-06-22T05:31:41;21.27;;;13.20;;
19965;SDS011;10144;50.874;4.762;2023-06-22T05:34:07;23.42;;;12.93;;
19965;SDS011;10144;50.874;4.762;2023-06-22T05:36:33;21.83;;;12.73;;
19965;SDS011;10144;50.874;4.762;2023-06-22T05:38:59;22.85;;;12.20;;
19965;SDS011;10144;50.874;4.762;2023-06-22T05:41:37;21.88;;;11.70;;
19965;SDS011;10144;50.874;4.762;2023-06-22T05:44:03;22.85;;;12.63;;
19965;SDS011;10144;50.874;4.762;2023-06-22T05:46:29;21.05;;;11.93;;
19965;SDS011;10144;50.874;4.762;2023-06-22T05:48:56;23.38;;;11.82;;
19965;SDS011;10144;50.874;4.762;2023-06-22T05:51:23;25.88;;;12.40;;
19965;SDS011;10144;50.874;4.762;2023-06-22T05:53:48;21.60;;;13.27;;
19965;SDS011;10144;50.874;4.762;2023-06-22T05:56:17;24.55;;;12.60;;
19965;SDS011;10144;50.874;4.762;2023-06-22T05:58:43;23.70;;;12.38;;
19965;SDS011;10144;50.874;4.762;2023-06-22T06:01:11;24.20;;;13.38;;
19965;SDS011;10144;50.874;4.762;2023-06-22T06:03:36;26.08;;;13.40;;
19965;SDS011;10144;50.874;4.762;2023-06-22T06:06:07;24.42;;;13.45;;
19965;SDS011;10144;50.874;4.762;2023-06-22T06:08:33;22.50;;;13.35;;
19965;SDS011;10144;50.874;4.762;2023-06-22T06:10:58;20.10;;;12.32;;
19965;SDS011;10144;50.874;4.762;2023-06-22T06:13:25;24.40;;;12.77;;
19965;SDS011;10144;50.874;4.762;2023-06-22T06:15:50;22.10;;;12.30;;
19965;SDS011;10144;50.874;4.762;2023-06-22T06:18:16;23.33;;;13.07;;
19965;SDS011;10144;50.874;4.762;2023-06-22T06:20:44;23.40;;;13.23;;
19965;SDS011;10144;50.874;4.762;2023-06-22T06:23:11;23.83;;;12.05;;
19965;SDS011;10144;50.874;4.762;2023-06-22T06:25:37;26.20;;;12.77;;
19965;SDS011;10144;50.874;4.762;2023-06-22T06:28:03;27.40;;;14.52;;
19965;SDS011;10144;50.874;4.762;2023-06-22T06:30:30;27.05;;;13.50;;
19965;SDS011;10144;50.874;4.762;2023-06-22T06:32:56;25.95;;;13.35;;
19965;SDS011;10144;50.874;4.762;2023-06-22T06:35:22;23.95;;;13.38;;
19965;SDS011;10144;50.874;4.762;2023-06-22T06:37:48;23.83;;;13.35;;
19965;SDS011;10144;50.874;4.762;2023-06-22T06:40:15;26.00;;;13.52;;
19965;SDS011;10144;50.874;4.762;2023-06-22T06:42:43;27.23;;;14.82;;
19965;SDS011;10144;50.874;4.762;2023-06-22T06:45:23;27.15;;;15.23;;
19965;SDS011;10144;50.874;4.762;2023-06-22T06:53:08;28.02;;;14.60;;
19965;SDS011;10144;50.874;4.762;2023-06-22T06:55:35;30.13;;;15.30;;
19965;SDS011;10144;50.874;4.762;2023-06-22T06:58:01;30.63;;;14.77;;
19965;SDS011;10144;50.874;4.762;2023-06-22T07:02:57;24.85;;;14.27;;
19965;SDS011;10144;50.874;4.762;2023-06-22T07:05:24;27.67;;;14.48;;
19965;SDS011;10144;50.874;4.762;2023-06-22T07:07:50;23.48;;;12.93;;
19965;SDS011;10144;50.874;4.762;2023-06-22T07:10:16;24.35;;;13.65;;
19965;SDS011;10144;50.874;4.762;2023-06-22T07:12:45;21.98;;;11.50;;
19965;SDS011;10144;50.874;4.762;2023-06-22T07:15:11;21.92;;;13.10;;
19965;SDS011;10144;50.874;4.762;2023-06-22T07:17:43;26.95;;;12.40;;
19965;SDS011;10144;50.874;4.762;2023-06-22T07:20:15;24.52;;;11.40;;
19965;SDS011;10144;50.874;4.762;2023-06-22T07:22:43;23.13;;;10.50;;
19965;SDS011;10144;50.874;4.762;2023-06-22T07:25:13;19.50;;;10.55;;
19965;SDS011;10144;50.874;4.762;2023-06-22T07:27:58;18.02;;;10.70;;
19965;SDS011;10144;50.874;4.762;2023-06-22T07:30:28;20.63;;;10.68;;
19965;SDS011;10144;50.874;4.762;2023-06-22T07:32:58;14.93;;;9.25;;
19965;SDS011;10144;50.874;4.762;2023-06-22T07:35:30;17.75;;;9.93;;
19965;SDS011;10144;50.874;4.762;2023-06-22T07:37:56;17.33;;;10.10;;
19965;SDS011;10144;50.874;4.762;2023-06-22T07:40:28;18.60;;;10.00;;
19965;SDS011;10144;50.874;4.762;2023-06-22T07:42:54;15.65;;;9.43;;
19965;SDS011;10144;50.874;4.762;2023-06-22T07:45:21;14.65;;;9.55;;
19965;SDS011;10144;50.874;4.762;2023-06-22T07:47:46;17.70;;;9.85;;
19965;SDS011;10144;50.874;4.762;2023-06-22T07:50:15;15.57;;;9.63;;
19965;SDS011;10144;50.874;4.762;2023-06-22T07:55:13;19.13;;;9.48;;
19965;SDS011;10144;50.874;4.762;2023-06-22T08:00:07;17.13;;;9.23;;
19965;SDS011;10144;50.874;4.762;2023-06-22T08:02:43;15.43;;;8.80;;
19965;SDS011;10144;50.874;4.762;2023-06-22T08:05:13;16.58;;;8.98;;
19965;SDS011;10144;50.874;4.762;2023-06-22T08:07:40;16.77;;;8.30;;
19965;SDS011;10144;50.874;4.762;2023-06-22T08:10:13;14.20;;;8.10;;
19965;SDS011;10144;50.874;4.762;2023-06-22T08:12:44;16.42;;;7.78;;
19965;SDS011;10144;50.874;4.762;2023-06-22T08:15:09;15.30;;;7.72;;
19965;SDS011;10144;50.874;4.762;2023-06-22T08:17:38;13.68;;;7.57;;
19965;SDS011;10144;50.874;4.762;2023-06-22T08:22:37;14.63;;;7.82;;
19965;SDS011;10144;50.874;4.762;2023-06-22T08:25:03;13.10;;;7.50;;
19965;SDS011;10144;50.874;4.762;2023-06-22T08:27:30;16.23;;;7.47;;
19965;SDS011;10144;50.874;4.762;2023-06-22T08:29:57;13.98;;;7.55;;
19965;SDS011;10144;50.874;4.762;2023-06-22T08:32:26;13.43;;;7.57;;
19965;SDS011;10144;50.874;4.762;2023-06-22T08:34:53;15.27;;;8.25;;
19965;SDS011;10144;50.874;4.762;2023-06-22T08:37:23;13.32;;;7.82;;
19965;SDS011;10144;50.874;4.762;2023-06-22T08:39:58;13.13;;;7.88;;
19965;SDS011;10144;50.874;4.762;2023-06-22T08:42:26;16.70;;;8.07;;
19965;SDS011;10144;50.874;4.762;2023-06-22T08:44:56;16.65;;;8.75;;
19965;SDS011;10144;50.874;4.762;2023-06-22T08:47:22;14.93;;;7.93;;
19965;SDS011;10144;50.874;4.762;2023-06-22T08:49:48;13.13;;;7.80;;
19965;SDS011;10144;50.874;4.762;2023-06-22T08:52:17;14.57;;;7.72;;
19965;SDS011;10144;50.874;4.762;2023-06-22T08:54:48;14.55;;;7.63;;
19965;SDS011;10144;50.874;4.762;2023-06-22T08:59:52;14.85;;;7.90;;
19965;SDS011;10144;50.874;4.762;2023-06-22T09:02:23;15.15;;;7.63;;
19965;SDS011;10144;50.874;4.762;2023-06-22T09:04:51;15.77;;;7.55;;
19965;SDS011;10144;50.874;4.762;2023-06-22T09:07:22;11.45;;;7.20;;
19965;SDS011;10144;50.874;4.762;2023-06-22T09:09:52;16.02;;;7.60;;
19965;SDS011;10144;50.874;4.762;2023-06-22T09:14:54;11.05;;;7.18;;
19965;SDS011;10144;50.874;4.762;2023-06-22T09:17:20;15.20;;;8.30;;
19965;SDS011;10144;50.874;4.762;2023-06-22T09:19:47;13.95;;;8.25;;
19965;SDS011;10144;50.874;4.762;2023-06-22T09:22:13;15.30;;;8.07;;
19965;SDS011;10144;50.874;4.762;2023-06-22T09:24:41;12.75;;;7.78;;
19965;SDS011;10144;50.874;4.762;2023-06-22T09:29:38;18.02;;;9.00;;
19965;SDS011;10144;50.874;4.762;2023-06-22T09:34:41;14.07;;;9.00;;
19965;SDS011;10144;50.874;4.762;2023-06-22T09:37:08;18.58;;;9.00;;
19965;SDS011;10144;50.874;4.762;2023-06-22T09:39:37;18.08;;;10.13;;
19965;SDS011;10144;50.874;4.762;2023-06-22T09:42:03;17.98;;;11.18;;
19965;SDS011;10144;50.874;4.762;2023-06-22T09:44:33;20.00;;;11.70;;
19965;SDS011;10144;50.874;4.762;2023-06-22T09:46:58;20.10;;;12.57;;
19965;SDS011;10144;50.874;4.762;2023-06-22T09:49:27;26.13;;;14.32;;
19965;SDS011;10144;50.874;4.762;2023-06-22T09:52:11;28.20;;;14.90;;
19965;SDS011;10144;50.874;4.762;2023-06-22T09:54:41;30.38;;;16.63;;
19965;SDS011;10144;50.874;4.762;2023-06-22T09:59:54;33.42;;;18.63;;
19965;SDS011;10144;50.874;4.762;2023-06-22T10:04:53;33.05;;;18.75;;
19965;SDS011;10144;50.874;4.762;2023-06-22T10:07:25;40.58;;;19.77;;
19965;SDS011;10144;50.874;4.762;2023-06-22T10:18:18;42.97;;;21.67;;
19965;SDS011;10144;50.874;4.762;2023-06-22T10:20:46;44.25;;;23.15;;
19965;SDS011;10144;50.874;4.762;2023-06-22T10:26:29;46.95;;;24.55;;
19965;SDS011;10144;50.874;4.762;2023-06-22T10:32:18;50.38;;;27.25;;
19965;SDS011;10144;50.874;4.762;2023-06-22T10:34:46;52.47;;;28.48;;
19965;SDS011;10144;50.874;4.762;2023-06-22T10:37:15;55.88;;;29.10;;
19965;SDS011;10144;50.874;4.762;2023-06-22T10:43:03;66.05;;;32.33;;
19965;SDS011;10144;50.874;4.762;2023-06-22T10:48:50;59.45;;;31.88;;
19965;SDS011;10144;50.874;4.762;2023-06-22T10:54:41;58.65;;;30.05;;
19965;SDS011;10144;50.874;4.762;2023-06-22T11:03:46;63.38;;;31.70;;
19965;SDS011;10144;50.874;4.762;2023-06-22T11:09:34;65.88;;;33.13;;
19965;SDS011;10144;50.874;4.762;2023-06-22T11:15:24;63.28;;;32.72;;
19965;SDS011;10144;50.874;4.762;2023-06-22T11:21:12;59.38;;;30.52;;
19965;SDS011;10144;50.874;4.762;2023-06-22T11:26:59;54.70;;;29.08;;
19965;SDS011;10144;50.874;4.762;2023-06-22T11:35:32;48.55;;;27.85;;
19965;SDS011;10144;50.874;4.762;2023-06-22T11:46:39;52.70;;;28.40;;
19965;SDS011;10144;50.874;4.762;2023-06-22T11:49:18;55.08;;;29.33;;
19965;SDS011;10144;50.874;4.762;2023-06-22T11:55:06;52.97;;;29.98;;
19965;SDS011;10144;50.874;4.762;2023-06-22T12:07:25;64.60;;;32.97;;
19965;SDS011;10144;50.874;4.762;2023-06-22T12:15:30;67.60;;;34.83;;
19965;SDS011;10144;50.874;4.762;2023-06-22T12:18:09;68.65;;;35.05;;
19965;SDS011;10144;50.874;4.762;2023-06-22T12:30:25;71.05;;;35.28;;
19965;SDS011;10144;50.874;4.762;2023-06-22T12:36:13;76.97;;;37.35;;
19965;SDS011;10144;50.874;4.762;2023-06-22T12:42:01;84.88;;;40.92;;
19965;SDS011;10144;50.874;4.762;2023-06-22T12:47:48;98.28;;;45.38;;
19965;SDS011;10144;50.874;4.762;2023-06-22T12:53:36;93.18;;;43.85;;
19965;SDS011;10144;50.874;4.762;2023-06-22T12:59:24;86.45;;;43.00;;
19965;SDS011;10144;50.874;4.762;2023-06-22T13:05:12;82.68;;;42.30;;
19965;SDS011;10144;50.874;4.762;2023-06-22T13:10:59;82.70;;;42.08;;
19965;SDS011;10144;50.874;4.762;2023-06-22T13:16:47;93.63;;;45.72;;
19965;SDS011;10144;50.874;4.762;2023-06-22T13:22:35;99.72;;;46.30;;
19965;SDS011;10144;50.874;4.762;2023-06-22T13:28:26;99.07;;;46.80;;
19965;SDS011;10144;50.874;4.762;2023-06-22T13:37:31;92.40;;;46.22;;
19965;SDS011;10144;50.874;4.762;2023-06-22T13:43:18;105.20;;;48.80;;
19965;SDS011;10144;50.874;4.762;2023-06-22T13:49:06;107.60;;;50.20;;
19965;SDS011;10144;50.874;4.762;2023-06-22T13:54:53;114.22;;;50.95;;
19965;SDS011;10144;50.874;4.762;2023-06-22T14:00:41;110.05;;;51.80;;
19965;SDS011;10144;50.874;4.762;2023-06-22T14:06:28;106.80;;;49.90;;
19965;SDS011;10144;50.874;4.762;2023-06-22T14:12:16;97.10;;;46.72;;
19965;SDS011;10144;50.874;4.762;2023-06-22T14:18:06;100.32;;;46.38;;
19965;SDS011;10144;50.874;4.762;2023-06-22T14:23:54;103.18;;;47.03;;
19965;SDS011;10144;50.874;4.762;2023-06-22T14:29:42;104.40;;;47.50;;
19965;SDS011;10144;50.874;4.762;2023-06-22T14:35:30;100.43;;;46.22;;
19965;SDS011;10144;50.874;4.762;2023-06-22T14:38:00;107.00;;;49.58;;
19965;SDS011;10144;50.874;4.762;2023-06-22T14:40:27;105.75;;;49.58;;
19965;SDS011;10144;50.874;4.762;2023-06-22T14:42:54;108.20;;;50.22;;
19965;SDS011;10144;50.874;4.762;2023-06-22T14:45:27;106.93;;;50.00;;
19965;SDS011;10144;50.874;4.762;2023-06-22T14:57:24;118.55;;;51.88;;
19965;SDS011;10144;50.874;4.762;2023-06-22T15:03:12;118.90;;;52.28;;
19965;SDS011;10144;50.874;4.762;2023-06-22T15:09:04;115.03;;;50.38;;
19965;SDS011;10144;50.874;4.762;2023-06-22T15:14:52;109.10;;;46.55;;
19965;SDS011;10144;50.874;4.762;2023-06-22T15:23:28;98.25;;;46.15;;
19965;SDS011;10144;50.874;4.762;2023-06-22T15:29:17;101.82;;;46.58;;
19965;SDS011;10144;50.874;4.762;2023-06-22T15:35:04;103.43;;;48.47;;
19965;SDS011;10144;50.874;4.762;2023-06-22T15:40:52;111.57;;;50.35;;
19965;SDS011;10144;50.874;4.762;2023-06-22T15:43:26;112.63;;;51.40;;
19965;SDS011;10144;50.874;4.762;2023-06-22T15:49:14;117.30;;;55.58;;
19965;SDS011;10144;50.874;4.762;2023-06-22T15:55:02;126.65;;;59.78;;
19965;SDS011;10144;50.874;4.762;2023-06-22T16:00:51;132.65;;;59.60;;
19965;SDS011;10144;50.874;4.762;2023-06-22T16:06:53;128.90;;;61.03;;
19965;SDS011;10144;50.874;4.762;2023-06-22T16:12:22;127.70;;;61.45;;
19965;SDS011;10144;50.874;4.762;2023-06-22T16:15:04;135.70;;;62.42;;
19965;SDS011;10144;50.874;4.762;2023-06-22T16:17:30;133.13;;;62.58;;
19965;SDS011;10144;50.874;4.762;2023-06-22T16:19:57;143.57;;;64.28;;
19965;SDS011;10144;50.874;4.762;2023-06-22T16:22:32;138.20;;;63.72;;
19965;SDS011;10144;50.874;4.762;2023-06-22T16:24:59;151.00;;;66.95;;
19965;SDS011;10144;50.874;4.762;2023-06-22T16:30:34;148.63;;;65.60;;
19965;SDS011;10144;50.874;4.762;2023-06-22T16:36:22;149.98;;;67.53;;
19965;SDS011;10144;50.874;4.762;2023-06-22T16:38:55;147.10;;;66.50;;
19965;SDS011;10144;50.874;4.762;2023-06-22T16:47:13;154.27;;;66.47;;
19965;SDS011;10144;50.874;4.762;2023-06-22T16:52:34;154.02;;;66.55;;
19965;SDS011;10144;50.874;4.762;2023-06-22T17:10:16;164.95;;;67.88;;
19965;SDS011;10144;50.874;4.762;2023-06-22T17:19:19;152.13;;;63.25;;
19965;SDS011;10144;50.874;4.762;2023-06-22T17:21:52;150.07;;;63.45;;
19965;SDS011;10144;50.874;4.762;2023-06-22T17:27:39;164.50;;;64.70;;
19965;SDS011;10144;50.874;4.762;2023-06-22T17:36:49;181.57;;;70.05;;
19965;SDS011;10144;50.874;4.762;2023-06-22T17:42:37;205.70;;;75.30;;
19965;SDS011;10144;50.874;4.762;2023-06-22T17:48:25;214.10;;;78.72;;
19965;SDS011;10144;50.874;4.762;2023-06-22T17:54:16;247.35;;;83.97;;
19965;SDS011;10144;50.874;4.762;2023-06-22T17:59:49;257.17;;;89.97;;
19965;SDS011;10144;50.874;4.762;2023-06-22T18:08:59;256.77;;;89.93;;
19965;SDS011;10144;50.874;4.762;2023-06-22T18:11:31;255.38;;;90.65;;
19965;SDS011;10144;50.874;4.762;2023-06-22T18:17:09;245.75;;;83.75;;
19965;SDS011;10144;50.874;4.762;2023-06-22T18:19:36;239.43;;;82.63;;
19965;SDS011;10144;50.874;4.762;2023-06-22T18:22:09;239.50;;;84.20;;
19965;SDS011;10144;50.874;4.762;2023-06-22T18:31:26;239.98;;;85.65;;
19965;SDS011;10144;50.874;4.762;2023-06-22T18:37:14;220.65;;;79.60;;
19965;SDS011;10144;50.874;4.762;2023-06-22T18:39:44;228.77;;;79.50;;
19965;SDS011;10144;50.874;4.762;2023-06-22T18:45:36;199.57;;;75.57;;
19965;SDS011;10144;50.874;4.762;2023-06-22T18:51:24;184.38;;;69.97;;
19965;SDS011;10144;50.874;4.762;2023-06-22T19:09:30;169.30;;;63.65;;
19965;SDS011;10144;50.874;4.762;2023-06-22T19:15:18;162.60;;;63.88;;
19965;SDS011;10144;50.874;4.762;2023-06-22T19:21:08;160.52;;;63.65;;
19965;SDS011;10144;50.874;4.762;2023-06-22T19:26:57;157.18;;;61.60;;
19965;SDS011;10144;50.874;4.762;2023-06-22T19:32:45;155.73;;;59.78;;
19965;SDS011;10144;50.874;4.762;2023-06-22T19:41:28;152.18;;;58.83;;
19965;SDS011;10144;50.874;4.762;2023-06-22T19:43:54;159.52;;;61.03;;
19965;SDS011;10144;50.874;4.762;2023-06-22T19:46:31;155.18;;;60.90;;
19965;SDS011;10144;50.874;4.762;2023-06-22T19:57:59;160.05;;;60.67;;
19965;SDS011;10144;50.874;4.762;2023-06-22T20:00:37;148.82;;;60.03;;
19965;SDS011;10144;50.874;4.762;2023-06-22T20:06:35;141.50;;;57.38;;
19965;SDS011;10144;50.874;4.762;2023-06-22T20:17:53;129.48;;;52.63;;
19965;SDS011;10144;50.874;4.762;2023-06-22T20:22:58;111.38;;;48.83;;
19965;SDS011;10144;50.874;4.762;2023-06-22T20:28:36;116.15;;;49.03;;
19965;SDS011;10144;50.874;4.762;2023-06-22T20:31:06;102.35;;;46.95;;
19965;SDS011;10144;50.874;4.762;2023-06-22T20:45:51;124.68;;;51.90;;
19965;SDS011;10144;50.874;4.762;2023-06-22T20:48:20;130.60;;;52.38;;
19965;SDS011;10144;50.874;4.762;2023-06-22T20:50:54;130.18;;;53.70;;
19965;SDS011;10144;50.874;4.762;2023-06-22T20:53:30;136.20;;;54.58;;
19965;SDS011;10144;50.874;4.762;2023-06-22T21:01:51;154.57;;;60.85;;
19965;SDS011;10144;50.874;4.762;2023-06-22T21:07:38;202.73;;;73.63;;
19965;SDS011;10144;50.874;4.762;2023-06-22T21:10:15;218.55;;;79.70;;
19965;SDS011;10144;50.874;4.762;2023-06-22T21:18:53;247.73;;;86.65;;
19965;SDS011;10144;50.874;4.762;2023-06-22T21:24:20;259.17;;;91.35;;
19965;SDS011;10144;50.874;4.762;2023-06-22T21:39:09;242.32;;;89.30;;
19965;SDS011;10144;50.874;4.762;2023-06-22T21:41:38;219.52;;;84.85;;
19965;SDS011;10144;50.874;4.762;2023-06-22T21:44:11;209.98;;;80.25;;
19965;SDS011;10144;50.874;4.762;2023-06-22T21:46:49;214.13;;;82.85;;
19965;SDS011;10144;50.874;4.762;2023-06-22T21:49:18;205.90;;;80.03;;
19965;SDS011;10144;50.874;4.762;2023-06-22T21:51:44;206.98;;;77.47;;
19965;SDS011;10144;50.874;4.762;2023-06-22T21:54:13;203.10;;;76.85;;
19965;SDS011;10144;50.874;4.762;2023-06-22T21:56:53;203.88;;;76.43;;
19965;SDS011;10144;50.874;4.762;2023-06-22T21:59:21;209.02;;;79.28;;
19965;SDS011;10144;50.874;4.762;2023-06-22T22:01:54;207.02;;;76.80;;
19965;SDS011;10144;50.874;4.762;2023-06-22T22:04:20;208.25;;;78.68;;